Time;durP1;ratioP1;P1;durP2;ratioP2;P2;SDS_P1;SDS_P2;PMS_P1;PMS_P2;Temp;Humidity;BMP_temperature;BMP_pressure;BME280_temperature;BME280_humidity;BME280_pressure;Samples;Min_cycle;Max_cycle;Signal;HPM_P1;HPM_P2
2022/01/01 00:02:02;;;;;;;40.75;26.25;;;;;;;13.13;89.33;102042.09;5094448;28;20102;-70
2022/01/01 00:04:36;;;;;;;38.83;25.08;;;;;;;12.93;89.16;102047.03;5094194;28;20040;-69
2022/01/01 00:07:03;;;;;;;37.70;24.30;;;;;;;12.80;90.25;102042.22;5093696;28;20052;-70
2022/01/01 00:09:30;;;;;;;48.50;32.03;;;;;;;12.98;89.80;102038.69;5092999;28;20055;-68
2022/01/01 00:11:58;;;;;;;68.32;46.67;;;;;;;13.41;88.26;102041.13;5093480;28;20044;-69
2022/01/01 00:14:31;;;;;;;49.00;34.15;;;;;;;12.85;88.77;102039.44;5094143;28;20044;-69
2022/01/01 00:16:59;;;;;;;60.90;43.10;;;;;;;12.71;89.94;102044.03;5093897;28;20052;-69
2022/01/01 00:19:26;;;;;;;77.40;54.65;;;;;;;12.79;90.32;102043.34;5092403;28;20040;-69
2022/01/01 00:21:56;;;;;;;45.70;29.45;;;;;;;12.81;90.20;102041.97;5094414;28;20052;-68
2022/01/01 00:24:23;;;;;;;40.78;25.67;;;;;;;13.00;89.12;102036.44;5097478;28;20059;-69
2022/01/01 00:26:51;;;;;;;37.47;27.08;;;;;;;12.65;90.20;102040.50;5098218;28;20056;-69
2022/01/01 00:29:19;;;;;;;39.70;26.65;;;;;;;12.82;90.09;102040.00;5097578;28;20130;-69
2022/01/01 00:31:47;;;;;;;38.17;25.75;;;;;;;12.69;89.72;102035.19;5096678;28;20052;-69
2022/01/01 00:34:15;;;;;;;39.50;24.33;;;;;;;12.95;89.23;102029.06;5097605;28;20376;-69
2022/01/01 00:36:42;;;;;;;37.20;24.67;;;;;;;12.88;88.88;102025.00;5097700;28;20056;-69
2022/01/01 00:39:09;;;;;;;36.72;24.80;;;;;;;12.82;88.92;102031.69;5097524;28;20056;-69
2022/01/01 00:41:37;;;;;;;41.42;27.45;;;;;;;12.78;88.83;102028.69;5097712;28;20052;-69
2022/01/01 00:44:04;;;;;;;53.50;35.60;;;;;;;12.97;88.78;102034.28;5097694;28;20043;-69
2022/01/01 00:46:31;;;;;;;73.63;53.55;;;;;;;12.86;88.90;102032.75;5097779;28;20040;-70
2022/01/01 00:48:59;;;;;;;100.68;67.70;;;;;;;12.73;89.69;102042.59;5097190;28;20051;-69
2022/01/01 00:51:26;;;;;;;112.57;75.70;;;;;;;12.71;90.20;102039.28;5097111;28;20059;-71
2022/01/01 00:53:54;;;;;;;112.50;69.72;;;;;;;12.84;89.36;102052.41;5079650;28;20150;-70
2022/01/01 00:56:21;;;;;;;92.03;58.50;;;;;;;12.75;89.51;102036.75;5079497;28;20059;-69
2022/01/01 00:58:49;;;;;;;79.50;49.70;;;;;;;12.66;90.28;102036.59;5097679;28;20056;-69
2022/01/01 01:01:16;;;;;;;74.43;45.67;;;;;;;12.73;89.76;102039.84;5097355;28;20155;-69
2022/01/01 01:03:43;;;;;;;57.80;36.67;;;;;;;13.10;88.54;102028.84;5097025;28;20055;-69
2022/01/01 01:06:12;;;;;;;48.55;31.85;;;;;;;12.99;87.86;102024.53;5097141;28;20051;-69
2022/01/01 01:08:40;;;;;;;45.42;26.73;;;;;;;12.77;89.19;102021.53;5097328;28;20517;-70
2022/01/01 01:11:08;;;;;;;36.78;26.38;;;;;;;12.80;89.58;102026.47;5097049;28;20055;-70
2022/01/01 01:13:38;;;;;;;40.03;25.42;;;;;;;12.85;89.33;102026.41;5096982;28;20546;-69
2022/01/01 01:16:06;;;;;;;38.55;25.98;;;;;;;12.89;88.73;102029.41;5097373;28;20047;-69
2022/01/01 01:18:33;;;;;;;40.25;24.08;;;;;;;12.84;88.87;102027.53;5095610;28;20044;-68
2022/01/01 01:21:01;;;;;;;34.13;21.90;;;;;;;12.99;88.10;102024.53;5096654;28;20052;-69
2022/01/01 01:23:28;;;;;;;34.40;22.75;;;;;;;12.82;88.10;102020.63;5097093;28;20063;-69
2022/01/01 01:25:59;;;;;;;68.80;46.65;;;;;;;12.81;88.83;102021.78;5096580;28;20040;-69
2022/01/01 01:28:30;;;;;;;35.50;23.77;;;;;;;12.92;88.68;102021.31;5095768;28;20054;-70
2022/01/01 01:30:58;;;;;;;33.45;23.92;;;;;;;12.71;89.17;102019.94;5095251;28;20052;-70
2022/01/01 01:33:25;;;;;;;41.75;26.25;;;;;;;12.78;88.99;102019.59;5094795;28;20056;-70
2022/01/01 01:35:53;;;;;;;38.63;26.88;;;;;;;12.64;89.27;102025.00;5078332;28;20055;-69
2022/01/01 01:38:20;;;;;;;36.97;26.05;;;;;;;12.55;89.70;102029.56;5095236;28;20173;-68
2022/01/01 01:40:47;;;;;;;41.17;26.05;;;;;;;12.43;90.58;102031.91;5096045;28;20056;-69
2022/01/01 01:43:14;;;;;;;39.75;25.05;;;;;;;12.54;90.25;102033.44;5096454;28;20047;-70
2022/01/01 01:45:44;;;;;;;36.47;24.77;;;;;;;12.49;89.77;102030.72;5096297;28;20364;-71
2022/01/01 01:48:11;;;;;;;39.13;25.70;;;;;;;12.41;90.58;102034.94;5096093;28;20058;-70
2022/01/01 01:50:38;;;;;;;44.35;24.85;;;;;;;12.41;90.65;102036.91;5095338;28;20044;-69
2022/01/01 01:53:07;;;;;;;44.58;30.80;;;;;;;12.27;90.66;102039.53;5096272;28;20391;-68
2022/01/01 01:55:34;;;;;;;38.40;27.13;;;;;;;12.30;91.32;102038.13;5094960;28;20051;-69
2022/01/01 01:58:02;;;;;;;39.78;24.80;;;;;;;12.13;92.36;102040.53;5094277;28;20047;-69
2022/01/01 02:03:09;;;;;;;41.05;23.83;;;;;;;12.41;90.76;102036.91;5095447;28;20399;-69
2022/01/01 02:05:37;;;;;;;40.15;22.92;;;;;;;12.16;91.41;102023.38;5095733;28;20052;-69
2022/01/01 02:08:05;;;;;;;38.47;23.27;;;;;;;12.16;91.99;102026.13;5095930;28;20541;-69
2022/01/01 02:10:34;;;;;;;40.60;25.33;;;;;;;12.15;91.51;102030.81;5095406;28;20506;-69
2022/01/01 02:13:10;;;;;;;37.03;22.42;;;;;;;12.12;91.77;102028.66;5095907;28;20052;-69
2022/01/01 02:16:27;;;;;;;35.83;24.42;;;;;;;12.40;90.86;102036.09;5095933;28;20044;-68
2022/01/01 02:18:25;;;;;;;46.75;31.00;;;;;;;12.58;90.12;102039.19;5095566;28;20055;-68
2022/01/01 02:20:55;;;;;;;28.67;20.73;;;;;;;12.27;90.46;102025.72;5094983;28;20063;-68
2022/01/01 02:23:25;;;;;;;33.35;22.35;;;;;;;12.37;90.17;102028.38;5076826;28;20062;-68
2022/01/01 02:25:54;;;;;;;;;;;;;;;12.16;90.70;102021.44;5094887;28;20036;-69
2022/01/01 02:28:21;;;;;;;31.80;20.90;;;;;;;12.11;91.16;102018.72;5095668;28;19927;-69
2022/01/01 02:30:50;;;;;;;34.15;22.73;;;;;;;12.29;90.72;102023.50;5095313;28;20051;-68
2022/01/01 02:33:18;;;;;;;34.38;20.65;;;;;;;12.07;90.87;102023.19;5095350;28;20040;-67
2022/01/01 02:35:45;;;;;;;32.92;20.30;;;;;;;12.28;90.88;102021.84;5095362;28;20048;-69
2022/01/01 02:38:12;;;;;;;34.60;20.70;;;;;;;12.20;90.55;102013.38;5095492;28;20059;-69
2022/01/01 02:40:40;;;;;;;37.30;25.02;;;;;;;12.14;91.00;102007.09;5093535;28;20056;-69
2022/01/01 02:43:07;;;;;;;52.38;33.88;;;;;;;12.13;91.14;102005.44;5072914;28;20962;-68
2022/01/01 02:45:35;;;;;;;36.33;23.65;;;;;;;11.98;91.15;102007.53;5056622;28;20063;-69
2022/01/01 02:48:02;;;;;;;31.52;20.83;;;;;;;11.97;91.60;102011.41;5076949;28;20048;-69
2022/01/01 02:50:30;;;;;;;33.92;19.52;;;;;;;12.01;91.74;102006.97;5088253;28;20052;-69
2022/01/01 02:52:57;;;;;;;30.83;20.17;;;;;;;12.05;91.70;102008.84;5076740;28;20067;-68
2022/01/01 02:55:24;;;;;;;37.88;20.52;;;;;;;11.97;91.10;102011.41;5095016;28;20047;-68
2022/01/01 02:57:52;;;;;;;37.15;24.38;;;;;;;12.12;91.16;102016.78;5094864;28;20067;-69
2022/01/01 03:00:19;;;;;;;32.75;20.77;;;;;;;11.85;92.19;102008.22;5095168;28;20067;-69
2022/01/01 03:02:46;;;;;;;30.60;19.67;;;;;;;11.97;91.97;102009.50;5094937;28;20056;-70
2022/01/01 03:05:14;;;;;;;32.10;20.40;;;;;;;11.75;92.75;102005.56;5094158;28;20059;-67
2022/01/01 03:07:41;;;;;;;34.97;21.48;;;;;;;11.61;93.40;102013.63;5094870;28;20056;-69
2022/01/01 03:10:08;;;;;;;40.22;21.60;;;;;;;11.48;95.15;102010.72;5094389;28;20074;-68
2022/01/01 03:12:36;;;;;;;33.55;21.58;;;;;;;11.77;94.00;102011.63;5092635;28;20375;-68
2022/01/01 03:15:03;;;;;;;34.33;21.00;;;;;;;11.67;94.23;101997.88;5087543;28;20059;-69
2022/01/01 03:17:30;;;;;;;53.75;22.38;;;;;;;11.40;95.31;102003.91;5093886;28;20071;-68
2022/01/01 03:19:58;;;;;;;29.15;19.75;;;;;;;11.48;95.75;102016.22;5092697;28;20058;-69
2022/01/01 03:22:25;;;;;;;39.80;21.38;;;;;;;11.65;95.29;102020.25;5094272;28;20067;-70
2022/01/01 03:24:53;;;;;;;30.60;21.42;;;;;;;11.67;94.90;102014.44;5094305;28;20063;-69
2022/01/01 03:27:20;;;;;;;40.35;25.45;;;;;;;11.58;94.83;102018.91;5095021;28;20589;-69
2022/01/01 03:29:47;;;;;;;31.45;20.52;;;;;;;11.61;94.76;102019.16;5081068;28;20071;-69
2022/01/01 03:32:15;;;;;;;30.83;21.02;;;;;;;11.57;94.87;102023.63;5084334;28;20059;-68
2022/01/01 03:34:43;;;;;;;32.47;21.08;;;;;;;11.42;95.69;102020.16;5094683;28;20059;-69
2022/01/01 03:37:11;;;;;;;33.42;20.17;;;;;;;11.49;95.79;102012.38;5093066;28;20499;-69
2022/01/01 03:39:38;;;;;;;31.40;20.77;;;;;;;11.49;96.34;102013.19;5091783;28;20048;-70
2022/01/01 03:42:05;;;;;;;32.38;21.13;;;;;;;11.45;95.86;102005.78;5073470;28;20044;-69
2022/01/01 03:44:33;;;;;;;32.63;21.02;;;;;;;11.36;96.28;102002.81;5072318;28;20060;-70
2022/01/01 03:47:21;;;;;;;32.60;20.00;;;;;;;11.40;96.80;102003.91;5078773;28;20047;-69
2022/01/01 03:49:49;;;;;;;31.75;20.65;;;;;;;11.41;96.15;102002.78;5094548;28;20067;-69
2022/01/01 03:52:17;;;;;;;30.58;20.30;;;;;;;11.46;96.32;102004.66;5094458;28;20067;-69
2022/01/01 03:54:44;;;;;;;29.55;19.88;;;;;;;11.51;95.69;102004.59;5094548;28;20052;-69
2022/01/01 03:57:11;;;;;;;30.85;20.23;;;;;;;11.44;95.52;102009.66;5093082;28;20063;-68
2022/01/01 03:59:38;;;;;;;28.83;19.08;;;;;;;11.40;95.42;102011.34;5098200;28;20052;-69
2022/01/01 04:02:05;;;;;;;34.67;19.83;;;;;;;11.33;96.22;102023.50;5096376;28;20070;-69
2022/01/01 04:04:33;;;;;;;29.02;19.77;;;;;;;11.53;95.58;102016.19;5080486;28;20056;-68
2022/01/01 04:07:02;;;;;;;29.27;19.33;;;;;;;11.42;95.49;102012.69;5098379;28;20391;-69
2022/01/01 04:09:29;;;;;;;31.40;19.48;;;;;;;11.29;95.53;102016.94;5098085;28;20063;-68
2022/01/01 04:11:56;;;;;;;29.05;18.10;;;;;;;11.38;95.99;102008.88;5096238;28;20058;-69
2022/01/01 04:14:24;;;;;;;30.83;18.80;;;;;;;11.48;95.79;101999.69;5098214;28;20058;-69
2022/01/01 04:16:53;;;;;;;27.27;17.80;;;;;;;11.44;95.26;102001.38;5097810;28;20059;-69
2022/01/01 04:19:27;;;;;;;28.13;18.52;;;;;;;11.31;95.80;102002.84;5096100;28;20048;-69
2022/01/01 04:21:54;;;;;;;28.77;18.25;;;;;;;11.17;96.57;102012.88;5076185;28;20053;-69
2022/01/01 04:24:21;;;;;;;27.65;17.90;;;;;;;11.17;96.93;102004.59;5078006;28;20144;-69
2022/01/01 04:26:49;;;;;;;26.42;17.25;;;;;;;11.23;96.88;102006.19;5076372;28;20059;-69
2022/01/01 04:29:16;;;;;;;28.70;19.00;;;;;;;11.33;96.55;102001.44;5077808;28;20044;-69
2022/01/01 04:31:44;;;;;;;40.33;23.92;;;;;;;11.13;96.48;101996.09;5077632;28;20060;-68
2022/01/01 04:34:11;;;;;;;42.25;26.40;;;;;;;11.06;97.43;101997.50;5097811;28;20044;-68
2022/01/01 04:36:47;;;;;;;53.10;30.55;;;;;;;11.01;97.88;101990.09;5097466;28;20044;-69
2022/01/01 04:39:14;;;;;;;46.33;28.67;;;;;;;11.06;97.71;101994.75;5097420;28;20056;-69
2022/01/01 04:41:42;;;;;;;39.10;25.33;;;;;;;10.93;98.18;101996.19;5075944;28;20053;-69
2022/01/01 04:44:09;;;;;;;37.22;21.80;;;;;;;11.06;98.00;101997.50;5076088;28;20059;-69
2022/01/01 04:46:36;;;;;;;33.00;19.67;;;;;;;10.93;97.58;102003.66;5075351;28;20053;-69
2022/01/01 04:49:04;;;;;;;31.38;18.90;;;;;;;10.71;98.69;101995.78;5096103;28;20052;-69
2022/01/01 04:51:32;;;;;;;29.63;18.95;;;;;;;10.57;100.00;102002.16;5095806;28;20070;-69
2022/01/01 04:54:01;;;;;;;28.27;17.85;;;;;;;10.45;100.00;101991.47;5097281;28;20044;-70
2022/01/01 04:56:32;;;;;;;27.05;17.67;;;;;;;10.62;100.00;101989.19;5097660;28;20058;-69
2022/01/01 04:59:02;;;;;;;29.38;18.08;;;;;;;10.70;100.00;101987.78;5097397;28;20063;-69
2022/01/01 05:01:29;;;;;;;29.67;18.98;;;;;;;10.53;100.00;101993.63;5095391;28;20048;-69
2022/01/01 05:03:57;;;;;;;27.58;18.10;;;;;;;10.33;100.00;101999.25;5096893;28;20048;-68
2022/01/01 05:06:24;;;;;;;31.42;19.65;;;;;;;10.42;100.00;102007.75;5097126;28;20047;-68
2022/01/01 05:08:51;;;;;;;29.50;18.38;;;;;;;10.39;100.00;102009.13;5095136;28;20083;-69
2022/01/01 05:11:19;;;;;;;29.67;18.23;;;;;;;10.49;100.00;102006.34;5096709;28;20051;-68
2022/01/01 05:13:46;;;;;;;28.70;17.98;;;;;;;10.59;100.00;102014.56;5097092;28;20056;-68
2022/01/01 05:16:15;;;;;;;35.65;18.95;;;;;;;10.49;100.00;102020.13;5096993;28;20047;-70
2022/01/01 05:18:42;;;;;;;28.33;18.27;;;;;;;10.57;100.00;102008.50;5096813;28;20047;-69
2022/01/01 05:21:10;;;;;;;28.35;17.63;;;;;;;10.75;99.32;102018.91;5078181;28;20055;-69
2022/01/01 05:23:37;;;;;;;25.10;16.90;;;;;;;10.74;98.89;101997.94;5095516;28;20063;-69
2022/01/01 05:26:04;;;;;;;27.35;16.95;;;;;;;10.70;98.03;101996.91;5096743;28;20051;-69
2022/01/01 05:28:32;;;;;;;24.63;16.52;;;;;;;10.84;98.15;101997.09;5077955;28;20114;-69
2022/01/01 05:30:59;;;;;;;24.30;15.73;;;;;;;10.72;97.18;101996.59;5094908;28;20048;-69
2022/01/01 05:33:26;;;;;;;24.10;16.40;;;;;;;10.61;98.40;101992.25;5096337;28;20043;-69
2022/01/01 05:35:53;;;;;;;22.83;15.57;;;;;;;10.71;98.26;101982.00;5096405;28;20052;-69
2022/01/01 05:38:22;;;;;;;21.98;15.48;;;;;;;10.74;97.45;101986.94;5096602;28;20043;-70
2022/01/01 05:40:53;;;;;;;20.20;14.27;;;;;;;10.87;96.70;101986.31;5096373;28;20052;-68
2022/01/01 05:43:20;;;;;;;20.92;14.32;;;;;;;10.85;95.93;101985.78;5096403;28;20063;-69
2022/01/01 05:45:48;;;;;;;21.17;13.65;;;;;;;11.01;95.39;101990.09;5096707;28;20491;-69
2022/01/01 05:48:15;;;;;;;21.88;13.70;;;;;;;10.94;94.83;101988.75;5096128;28;20059;-68
2022/01/01 05:50:43;;;;;;;24.15;14.00;;;;;;;10.78;95.22;101985.25;5094815;28;20044;-70
2022/01/01 05:53:10;;;;;;;22.15;13.57;;;;;;;10.85;95.52;101994.03;5094831;28;20047;-69
2022/01/01 05:55:37;;;;;;;23.35;14.38;;;;;;;10.78;95.44;101988.03;5094669;28;20056;-69
2022/01/01 05:58:05;;;;;;;19.70;14.20;;;;;;;10.95;95.04;101987.63;5095781;28;20460;-69
2022/01/01 06:00:34;;;;;;;23.83;14.38;;;;;;;10.78;94.92;101987.19;5096507;28;20052;-68
2022/01/01 06:03:01;;;;;;;22.25;14.68;;;;;;;10.55;96.58;101985.91;5095325;28;20056;-68
2022/01/01 06:05:29;;;;;;;24.15;14.95;;;;;;;10.50;97.05;101982.38;5095803;28;20044;-68
2022/01/01 06:07:58;;;;;;;22.50;14.40;;;;;;;10.51;96.91;101986.78;5094670;28;20118;-68
2022/01/01 06:10:26;;;;;;;22.35;14.75;;;;;;;10.36;97.28;101989.56;5077444;28;20048;-68
2022/01/01 06:12:53;;;;;;;21.80;14.43;;;;;;;10.50;97.34;101983.19;5095753;28;20048;-69
2022/01/01 06:15:21;;;;;;;22.40;14.13;;;;;;;10.53;96.68;101974.34;5095819;28;20056;-68
2022/01/01 06:17:48;;;;;;;21.35;14.75;;;;;;;10.49;97.04;101972.47;5094360;28;20040;-68
2022/01/01 06:20:15;;;;;;;21.17;14.40;;;;;;;10.49;97.18;101986.25;5093743;28;20059;-70
2022/01/01 06:23:04;;;;;;;23.60;15.88;;;;;;;10.48;96.06;101979.09;5095825;28;20059;-69
2022/01/01 06:25:33;;;;;;;27.88;15.57;;;;;;;10.35;96.85;101983.25;5094312;28;20063;-70
2022/01/01 06:28:00;;;;;;;21.90;14.73;;;;;;;10.41;96.68;101986.84;5095698;28;20051;-68
2022/01/01 06:30:33;;;;;;;22.15;15.63;;;;;;;10.22;97.29;101994.06;5095675;28;20048;-69
2022/01/01 06:33:12;;;;;;;25.08;15.45;;;;;;;10.17;97.50;101984.69;5093927;28;20056;-69
2022/01/01 06:35:42;;;;;;;25.70;15.07;;;;;;;10.22;97.69;101994.06;5094022;28;20048;-69
2022/01/01 06:38:10;;;;;;;22.60;14.93;;;;;;;10.08;98.29;101983.63;5094201;28;20054;-70
2022/01/01 06:40:39;;;;;;;23.80;15.18;;;;;;;10.21;97.77;101976.72;5095596;28;20055;-68
2022/01/01 06:43:08;;;;;;;20.90;14.27;;;;;;;10.36;97.36;101968.38;5094920;28;20048;-68
2022/01/01 06:45:35;;;;;;;21.75;14.32;;;;;;;10.53;96.42;101974.34;5094798;28;20071;-69
2022/01/01 06:48:03;;;;;;;24.77;14.85;;;;;;;10.57;95.92;101972.69;5095262;28;20044;-69
2022/01/01 06:50:31;;;;;;;24.42;15.30;;;;;;;10.37;95.12;101975.56;5093896;28;20047;-69
2022/01/01 06:52:58;;;;;;;23.05;14.10;;;;;;;10.20;95.63;101978.63;5093015;28;20051;-69
2022/01/01 06:55:26;;;;;;;20.65;14.60;;;;;;;10.19;96.71;101982.50;5094939;28;20063;-68
2022/01/01 06:57:53;;;;;;;19.83;13.13;;;;;;;10.17;96.68;101978.34;5095142;28;20056;-68
2022/01/01 07:00:20;;;;;;;20.20;14.48;;;;;;;10.40;95.81;101971.41;5095279;28;20056;-68
2022/01/01 07:02:48;;;;;;;19.38;13.40;;;;;;;10.50;94.82;101976.84;5093631;28;20052;-69
2022/01/01 07:05:16;;;;;;;21.58;13.48;;;;;;;10.29;94.98;101975.31;5094963;28;20051;-69
2022/01/01 07:07:43;;;;;;;20.50;13.80;;;;;;;10.31;95.57;101979.41;5095082;28;20052;-68
2022/01/01 07:10:12;;;;;;;22.73;13.60;;;;;;;10.09;95.87;101978.94;5093745;28;20055;-70
2022/01/01 07:12:40;;;;;;;22.60;14.27;;;;;;;10.27;95.83;101981.06;5076742;28;20060;-71
2022/01/01 07:15:09;;;;;;;20.45;13.18;;;;;;;10.22;94.89;101985.78;5094844;28;20419;-68
2022/01/01 07:17:37;;;;;;;20.45;12.70;;;;;;;10.37;94.90;101981.06;5093545;28;20055;-68
2022/01/01 07:20:05;;;;;;;18.92;13.30;;;;;;;10.18;94.39;101980.03;5093362;28;20066;-68
2022/01/01 07:22:38;;;;;;;20.85;12.90;;;;;;;10.15;94.83;101970.38;5094701;28;20047;-68
2022/01/01 07:25:06;;;;;;;18.48;12.52;;;;;;;10.23;94.53;101978.06;5093369;28;20048;-68
2022/01/01 07:27:33;;;;;;;21.50;13.00;;;;;;;10.13;94.37;101975.34;5093579;28;20048;-69
2022/01/01 07:30:01;;;;;;;18.00;12.45;;;;;;;10.18;94.18;101989.09;5095077;28;20490;-69
2022/01/01 07:32:28;;;;;;;18.35;12.45;;;;;;;10.13;94.57;101980.84;5095144;28;20044;-69
2022/01/01 07:34:55;;;;;;;18.98;12.00;;;;;;;10.22;94.83;101985.78;5098914;28;20048;-66
2022/01/01 07:37:23;;;;;;;17.17;11.98;;;;;;;10.26;94.31;101995.97;5098962;28;20048;-68
2022/01/01 07:39:50;;;;;;;20.52;13.38;;;;;;;10.11;93.56;101988.56;5098837;28;20048;-69
2022/01/01 07:42:17;;;;;;;16.95;11.95;;;;;;;9.98;94.41;101982.78;5098775;28;20051;-68
2022/01/01 07:44:44;;;;;;;18.80;12.23;;;;;;;10.04;93.94;101996.25;5097683;28;20063;-68
2022/01/01 07:47:12;;;;;;;19.10;12.57;;;;;;;9.99;94.37;101989.94;5098421;28;20055;-69
2022/01/01 07:49:39;;;;;;;20.63;12.63;;;;;;;9.74;94.82;101982.56;5098533;28;20048;-69
2022/01/01 07:52:06;;;;;;;22.00;13.68;;;;;;;9.75;95.96;101980.63;5098314;28;20048;-69
2022/01/01 07:54:34;;;;;;;20.67;13.07;;;;;;;9.71;96.17;101988.59;5098320;28;20491;-69
2022/01/01 07:57:01;;;;;;;24.15;13.23;;;;;;;9.92;95.77;101989.41;5098694;28;20040;-69
2022/01/01 07:59:28;;;;;;;20.10;12.48;;;;;;;9.90;94.97;101988.88;5096922;28;20438;-69
2022/01/01 08:01:55;;;;;;;26.17;13.95;;;;;;;9.73;95.41;101989.16;5098368;28;20056;-69
2022/01/01 08:04:23;;;;;;;20.52;13.00;;;;;;;9.74;96.57;101993.56;5096722;28;20082;-70
2022/01/01 08:06:51;;;;;;;21.45;12.60;;;;;;;9.99;95.12;101987.16;5097764;28;20135;-69
2022/01/01 08:09:18;;;;;;;20.10;12.85;;;;;;;9.79;94.84;101987.22;5079015;28;20517;-69
2022/01/01 08:11:45;;;;;;;19.73;12.18;;;;;;;9.96;94.57;101985.00;5098314;28;20066;-68
2022/01/01 08:14:12;;;;;;;22.50;12.95;;;;;;;9.81;94.16;101993.28;5098281;28;20414;-70
2022/01/01 08:17:00;;;;;;;19.92;12.55;;;;;;;9.85;94.24;101984.19;5098068;28;20499;-69
2022/01/01 08:19:28;;;;;;;20.95;11.93;;;;;;;9.75;94.50;101984.19;5097639;28;20070;-69
2022/01/01 08:21:55;;;;;;;20.45;12.30;;;;;;;9.71;94.54;101979.53;5098341;28;20416;-69
2022/01/01 08:24:23;;;;;;;20.70;11.88;;;;;;;9.84;94.53;101966.03;5097593;28;20067;-69
2022/01/01 08:26:51;;;;;;;20.73;11.43;;;;;;;9.70;94.75;101964.13;5098416;28;20059;-69
2022/01/01 08:29:18;;;;;;;19.25;11.77;;;;;;;9.84;94.39;101966.03;5098000;28;20036;-70
2022/01/01 08:31:46;;;;;;;17.90;12.20;;;;;;;9.89;94.01;101976.19;5096576;28;20063;-70
2022/01/01 08:34:13;;;;;;;17.10;11.60;;;;;;;9.82;93.95;101975.66;5096574;28;20052;-70
2022/01/01 08:36:40;;;;;;;19.45;13.38;;;;;;;9.56;94.51;101979.53;5096556;28;20483;-70
2022/01/01 08:39:08;;;;;;;20.38;12.43;;;;;;;9.80;94.10;101977.84;5097987;28;20044;-69
2022/01/01 08:41:36;;;;;;;21.42;12.05;;;;;;;9.89;93.80;101978.94;5095662;28;20052;-71
2022/01/01 08:44:03;;;;;;;19.30;12.13;;;;;;;9.81;93.78;101972.09;5095639;28;20444;-69
2022/01/01 08:46:31;;;;;;;20.67;12.10;;;;;;;9.97;93.56;101979.19;5097557;28;20055;-69
2022/01/01 08:48:59;;;;;;;17.33;11.38;;;;;;;9.73;93.94;101971.81;5097804;28;20048;-69
2022/01/01 08:51:28;;;;;;;18.70;11.75;;;;;;;9.62;94.65;101968.28;5095956;28;20227;-68
2022/01/01 08:53:56;;;;;;;20.20;12.05;;;;;;;9.66;94.78;101974.84;5095432;28;20063;-67
2022/01/01 08:56:24;;;;;;;19.55;11.60;;;;;;;9.91;94.59;101968.50;5095901;28;20059;-68
2022/01/01 08:58:52;;;;;;;19.38;11.70;;;;;;;9.92;93.62;101965.44;5097090;28;20059;-69
2022/01/01 09:01:20;;;;;;;16.77;11.63;;;;;;;9.81;94.45;101968.50;5081366;28;20044;-69
2022/01/01 09:03:47;;;;;;;17.48;11.63;;;;;;;9.72;94.25;101967.41;5097236;28;20052;-67
2022/01/01 09:06:15;;;;;;;16.05;11.85;;;;;;;9.79;94.49;101984.47;5075569;28;20063;-68
2022/01/01 09:08:43;;;;;;;19.10;12.05;;;;;;;9.87;94.24;101981.16;5087146;28;20040;-68
2022/01/01 09:11:12;;;;;;;19.00;12.55;;;;;;;10.13;94.13;101974.50;5095584;28;20044;-68
2022/01/01 09:13:43;;;;;;;18.75;12.88;;;;;;;10.16;92.97;101961.00;5096809;28;20048;-67
2022/01/01 09:16:12;;;;;;;18.92;12.95;;;;;;;10.04;93.14;101954.97;5096717;28;20051;-68
2022/01/01 09:18:42;;;;;;;19.57;12.60;;;;;;;10.18;93.46;101950.53;5095513;28;20496;-71
2022/01/01 09:21:09;;;;;;;18.67;12.25;;;;;;;10.32;93.46;101950.75;5095697;28;20055;-65
2022/01/01 09:23:37;;;;;;;18.73;12.30;;;;;;;9.98;92.97;101945.09;5095136;28;20063;-69
2022/01/01 09:26:04;;;;;;;20.10;12.27;;;;;;;9.77;93.93;101942.66;5095657;28;20047;-67
2022/01/01 09:28:33;;;;;;;18.45;12.32;;;;;;;9.70;94.86;101942.09;5095596;28;20048;-66
2022/01/01 09:31:02;;;;;;;18.73;12.27;;;;;;;9.68;95.00;101938.81;5091328;28;20059;-67
2022/01/01 09:33:30;;;;;;;18.50;12.35;;;;;;;9.75;95.41;101926.41;5077998;28;20051;-67
2022/01/01 09:35:58;;;;;;;19.52;12.57;;;;;;;9.89;95.27;101921.16;5077521;28;20051;-67
2022/01/01 09:38:26;;;;;;;16.45;11.10;;;;;;;9.81;94.81;101921.75;5093762;28;20044;-69
2022/01/01 09:40:54;;;;;;;19.38;11.75;;;;;;;9.71;94.83;101922.56;5092684;28;20052;-69
2022/01/01 09:43:23;;;;;;;16.63;11.88;;;;;;;9.79;94.77;101926.69;5094927;28;20082;-70
2022/01/01 09:45:52;;;;;;;18.73;12.38;;;;;;;9.83;94.43;101933.28;5092948;28;20052;-71
2022/01/01 09:48:21;;;;;;;19.90;12.57;;;;;;;9.77;94.61;101937.16;5095623;28;20056;-66
2022/01/01 09:50:49;;;;;;;17.75;11.73;;;;;;;9.96;94.90;101930.78;5078230;28;20051;-69
2022/01/01 09:53:20;;;;;;;15.40;10.88;;;;;;;9.94;94.04;101921.13;5091205;28;20044;-69
2022/01/01 09:55:47;;;;;;;19.17;11.18;;;;;;;10.15;94.09;101920.81;5075736;28;20056;-67
2022/01/01 09:58:14;;;;;;;19.55;12.23;;;;;;;10.35;92.44;101919.91;5075897;28;20061;-71
2022/01/01 10:00:42;;;;;;;17.52;11.43;;;;;;;10.30;92.87;101917.19;5088042;28;20059;-70
2022/01/01 10:03:13;;;;;;;14.35;10.40;;;;;;;10.51;91.71;101924.25;5086520;28;20040;-66
2022/01/01 10:05:57;;;;;;;13.98;9.50;;;;;;;10.40;91.05;101930.91;5100893;28;20058;-68
2022/01/01 10:08:24;;;;;;;13.93;9.57;;;;;;;10.49;91.46;101923.72;5094523;28;20060;-68
2022/01/01 10:10:53;;;;;;;13.05;9.18;;;;;;;10.53;91.43;101922.00;5096256;28;20048;-67
2022/01/01 10:13:32;;;;;;;15.18;9.45;;;;;;;10.52;91.79;101928.66;5096178;28;20075;-68
2022/01/01 10:16:03;;;;;;;13.98;8.52;;;;;;;10.77;90.72;101919.41;5096141;28;20514;-68
2022/01/01 10:18:36;;;;;;;14.30;9.02;;;;;;;10.83;89.70;101921.84;5081877;28;20044;-68
2022/01/01 10:21:08;;;;;;;13.77;8.98;;;;;;;10.70;89.56;101908.72;5080782;28;20063;-68
2022/01/01 10:23:37;;;;;;;15.00;10.25;;;;;;;10.90;89.44;101910.47;5096674;28;20059;-69
2022/01/01 10:29:16;;;;;;;17.05;10.15;;;;;;;11.07;88.75;101916.44;5094894;28;20048;-67
2022/01/01 10:32:03;;;;;;;15.05;8.85;;;;;;;10.94;87.58;101920.66;5095764;28;20044;-66
2022/01/01 10:34:44;;;;;;;15.93;10.43;;;;;;;11.13;86.96;101926.31;5095303;28;20051;-66
2022/01/01 10:37:32;;;;;;;14.18;8.98;;;;;;;11.27;86.81;101919.03;5095614;28;20044;-66
2022/01/01 10:39:59;;;;;;;15.02;9.45;;;;;;;11.29;86.50;101911.28;5106078;28;20044;-66
2022/01/01 10:42:27;;;;;;;12.70;8.82;;;;;;;11.14;86.18;101914.19;5105505;28;20048;-67
2022/01/01 10:44:55;;;;;;;21.85;15.43;;;;;;;11.57;86.39;101920.69;5084819;28;20055;-68
2022/01/01 10:47:31;;;;;;;15.13;9.98;;;;;;;11.61;84.69;101919.00;5095395;28;20048;-68
2022/01/01 10:52:45;;;;;;;13.23;8.20;;;;;;;11.61;83.46;101916.25;5074371;28;20052;-69
2022/01/01 10:55:15;;;;;;;16.98;9.75;;;;;;;11.55;84.59;101920.97;5079941;28;20054;-68
2022/01/01 10:57:55;;;;;;;12.98;8.30;;;;;;;11.73;83.41;101922.22;5095304;28;20052;-68
2022/01/01 11:00:25;;;;;;;12.47;8.77;;;;;;;11.49;84.60;101919.38;5094647;28;20439;-68
2022/01/01 11:02:54;;;;;;;18.80;7.85;;;;;;;11.53;84.41;101919.63;5093257;28;20051;-67
2022/01/01 11:05:31;;;;;;;12.48;7.65;;;;;;;11.76;84.80;101919.69;5093017;28;20054;-66
2022/01/01 11:07:59;;;;;;;12.05;7.85;;;;;;;11.68;83.77;101922.28;5094445;28;20055;-67
2022/01/01 11:10:27;;;;;;;10.77;6.68;;;;;;;11.61;83.74;101917.03;5094610;28;20044;-69
2022/01/01 11:12:56;;;;;;;10.15;6.35;;;;;;;11.95;83.24;101900.44;5095988;28;20043;-67
2022/01/01 11:15:23;;;;;;;11.63;7.13;;;;;;;11.85;82.39;101909.66;5060655;28;20052;-67
2022/01/01 11:17:51;;;;;;;9.98;5.88;;;;;;;11.63;83.00;101900.22;5077596;28;20044;-66
2022/01/01 11:20:20;;;;;;;10.88;6.53;;;;;;;11.71;83.47;101899.59;5093841;28;20048;-67
2022/01/01 11:22:48;;;;;;;10.55;6.47;;;;;;;11.60;83.26;101896.09;5094096;28;20055;-66
2022/01/01 11:25:17;;;;;;;10.05;6.32;;;;;;;11.82;83.16;101890.09;5093075;28;20055;-67
2022/01/01 11:27:45;;;;;;;12.13;6.32;;;;;;;12.11;82.28;101888.09;5095411;28;20628;-67